sensor_id;sensor_type;location;lat;lon;timestamp;pressure;altitude;pressure_sealevel;temperature;humidity
37202;BME280;37799;52.390;6.136;2023-06-22T00:00:45;101960.28;;;16.06;100.00
37202;BME280;37799;52.390;6.136;2023-06-22T00:03:12;101961.25;;;16.04;100.00
37202;BME280;37799;52.390;6.136;2023-06-22T00:05:37;101962.16;;;16.03;100.00
37202;BME280;37799;52.390;6.136;2023-06-22T00:08:04;101955.28;;;15.99;100.00
37202;BME280;37799;52.390;6.136;2023-06-22T00:10:32;101943.34;;;15.91;100.00
37202;BME280;37799;52.390;6.136;2023-06-22T00:12:58;101941.59;;;15.92;100.00
37202;BME280;37799;52.390;6.136;2023-06-22T00:15:23;101944.03;;;15.97;100.00
37202;BME280;37799;52.390;6.136;2023-06-22T00:17:49;101951.22;;;15.90;100.00
37202;BME280;37799;52.390;6.136;2023-06-22T00:20:15;101955.59;;;15.89;100.00
37202;BME280;37799;52.390;6.136;2023-06-22T00:22:42;101951.25;;;15.88;100.00
37202;BME280;37799;52.390;6.136;2023-06-22T00:25:08;101946.84;;;15.90;100.00
37202;BME280;37799;52.390;6.136;2023-06-22T00:27:35;101946.03;;;15.88;100.00
37202;BME280;37799;52.390;6.136;2023-06-22T00:30:02;101962.44;;;15.93;100.00
37202;BME280;37799;52.390;6.136;2023-06-22T00:32:30;101947.75;;;15.89;100.00
37202;BME280;37799;52.390;6.136;2023-06-22T00:34:56;101941.16;;;15.78;100.00
37202;BME280;37799;52.390;6.136;2023-06-22T00:37:22;101942.91;;;15.77;100.00
37202;BME280;37799;52.390;6.136;2023-06-22T00:39:51;101936.84;;;15.75;100.00
37202;BME280;37799;52.390;6.136;2023-06-22T00:42:25;101923.84;;;15.74;100.00
37202;BME280;37799;52.390;6.136;2023-06-22T00:44:51;101926.59;;;15.69;100.00
37202;BME280;37799;52.390;6.136;2023-06-22T00:47:18;101921.47;;;15.66;100.00
37202;BME280;37799;52.390;6.136;2023-06-22T00:49:44;101920.63;;;15.66;100.00
37202;BME280;37799;52.390;6.136;2023-06-22T00:52:10;101937.13;;;15.66;100.00
37202;BME280;37799;52.390;6.136;2023-06-22T00:54:40;101930.31;;;15.60;100.00
37202;BME280;37799;52.390;6.136;2023-06-22T00:57:13;101930.44;;;15.56;100.00
37202;BME280;37799;52.390;6.136;2023-06-22T00:59:42;101924.63;;;15.46;100.00
37202;BME280;37799;52.390;6.136;2023-06-22T01:02:08;101920.44;;;15.41;100.00
37202;BME280;37799;52.390;6.136;2023-06-22T01:04:35;101924.84;;;15.39;100.00
37202;BME280;37799;52.390;6.136;2023-06-22T01:10:13;101916.13;;;15.40;100.00
37202;BME280;37799;52.390;6.136;2023-06-22T01:12:45;101919.63;;;15.39;100.00
37202;BME280;37799;52.390;6.136;2023-06-22T01:15:30;101924.06;;;15.37;100.00
37202;BME280;37799;52.390;6.136;2023-06-22T01:17:59;101929.28;;;15.37;100.00
37202;BME280;37799;52.390;6.136;2023-06-22T01:20:26;101930.13;;;15.37;100.00
37202;BME280;37799;52.390;6.136;2023-06-22T01:26:08;101928.19;;;15.44;100.00
37202;BME280;37799;52.390;6.136;2023-06-22T01:28:46;101931.78;;;15.40;100.00
37202;BME280;37799;52.390;6.136;2023-06-22T01:31:15;101936.19;;;15.38;100.00
37202;BME280;37799;52.390;6.136;2023-06-22T01:33:44;101925.75;;;15.38;100.00
37202;BME280;37799;52.390;6.136;2023-06-22T01:36:10;101930.97;;;15.38;100.00
37202;BME280;37799;52.390;6.136;2023-06-22T01:38:37;101923.09;;;15.39;100.00
37202;BME280;37799;52.390;6.136;2023-06-22T01:41:03;101921.56;;;15.32;100.00
37202;BME280;37799;52.390;6.136;2023-06-22T01:43:29;101915.72;;;15.24;100.00
37202;BME280;37799;52.390;6.136;2023-06-22T01:45:56;101916.69;;;15.20;100.00
37202;BME280;37799;52.390;6.136;2023-06-22T01:48:23;101933.09;;;15.23;100.00
37202;BME280;37799;52.390;6.136;2023-06-22T01:50:49;101924.47;;;15.21;100.00
37202;BME280;37799;52.390;6.136;2023-06-22T01:53:14;101919.28;;;15.20;100.00
37202;BME280;37799;52.390;6.136;2023-06-22T01:55:40;101909.97;;;15.11;100.00
37202;BME280;37799;52.390;6.136;2023-06-22T01:58:05;101912.75;;;15.05;100.00
37202;BME280;37799;52.390;6.136;2023-06-22T02:00:40;101913.72;;;15.01;100.00
37202;BME280;37799;52.390;6.136;2023-06-22T02:03:20;101905.72;;;15.07;100.00
37202;BME280;37799;52.390;6.136;2023-06-22T02:05:52;101906.72;;;15.03;100.00
37202;BME280;37799;52.390;6.136;2023-06-22T02:08:22;101902.31;;;15.05;100.00
37202;BME280;37799;52.390;6.136;2023-06-22T02:10:49;101901.50;;;15.03;100.00
37202;BME280;37799;52.390;6.136;2023-06-22T02:13:16;101905.09;;;14.99;100.00
37202;BME280;37799;52.390;6.136;2023-06-22T02:15:42;101906.97;;;14.94;100.00
37202;BME280;37799;52.390;6.136;2023-06-22T02:18:08;101901.81;;;14.91;100.00
37202;BME280;37799;52.390;6.136;2023-06-22T02:20:37;101906.25;;;14.89;100.00
37202;BME280;37799;52.390;6.136;2023-06-22T02:23:02;101904.44;;;14.91;100.00
37202;BME280;37799;52.390;6.136;2023-06-22T02:25:27;101905.47;;;14.85;100.00
37202;BME280;37799;52.390;6.136;2023-06-22T02:27:53;101904.63;;;14.83;100.00
37202;BME280;37799;52.390;6.136;2023-06-22T02:30:18;101904.63;;;14.85;100.00
37202;BME280;37799;52.390;6.136;2023-06-22T02:32:43;101899.47;;;14.82;100.00
37202;BME280;37799;52.390;6.136;2023-06-22T02:35:09;101895.09;;;14.82;100.00
37202;BME280;37799;52.390;6.136;2023-06-22T02:37:36;101900.28;;;14.84;100.00
37202;BME280;37799;52.390;6.136;2023-06-22T02:40:05;101889.88;;;14.82;100.00
37202;BME280;37799;52.390;6.136;2023-06-22T02:42:32;101888.94;;;14.86;100.00
37202;BME280;37799;52.390;6.136;2023-06-22T02:44:57;101899.31;;;14.88;100.00
37202;BME280;37799;52.390;6.136;2023-06-22T02:47:23;101892.16;;;14.94;100.00
37202;BME280;37799;52.390;6.136;2023-06-22T02:49:48;101888.78;;;14.91;100.00
37202;BME280;37799;52.390;6.136;2023-06-22T02:52:14;101896.72;;;14.88;100.00
37202;BME280;37799;52.390;6.136;2023-06-22T02:54:39;101892.44;;;14.84;100.00
37202;BME280;37799;52.390;6.136;2023-06-22T02:57:04;101898.56;;;14.83;100.00
37202;BME280;37799;52.390;6.136;2023-06-22T02:59:30;101896.03;;;14.80;100.00
37202;BME280;37799;52.390;6.136;2023-06-22T03:01:55;101900.28;;;14.84;100.00
37202;BME280;37799;52.390;6.136;2023-06-22T03:04:21;101901.81;;;14.91;100.00
37202;BME280;37799;52.390;6.136;2023-06-22T03:06:46;101895.72;;;14.92;100.00
37202;BME280;37799;52.390;6.136;2023-06-22T03:09:16;101894.81;;;14.93;100.00
37202;BME280;37799;52.390;6.136;2023-06-22T03:11:42;101896.56;;;14.92;100.00
37202;BME280;37799;52.390;6.136;2023-06-22T03:14:07;101895.56;;;14.98;100.00
37202;BME280;37799;52.390;6.136;2023-06-22T03:16:32;101892.06;;;14.99;100.00
37202;BME280;37799;52.390;6.136;2023-06-22T03:18:58;101896.31;;;15.01;100.00
37202;BME280;37799;52.390;6.136;2023-06-22T03:21:27;101891.16;;;15.00;100.00
37202;BME280;37799;52.390;6.136;2023-06-22T03:23:53;101890.34;;;14.98;100.00
37202;BME280;37799;52.390;6.136;2023-06-22T03:26:18;101892.09;;;14.97;100.00
37202;BME280;37799;52.390;6.136;2023-06-22T03:28:44;101898.97;;;15.00;100.00
37202;BME280;37799;52.390;6.136;2023-06-22T03:31:09;101894.63;;;15.00;100.00
37202;BME280;37799;52.390;6.136;2023-06-22T03:33:34;101892.06;;;14.99;100.00
37202;BME280;37799;52.390;6.136;2023-06-22T03:36:00;101898.03;;;15.02;100.00
37202;BME280;37799;52.390;6.136;2023-06-22T03:38:26;101891.03;;;15.04;100.00
37202;BME280;37799;52.390;6.136;2023-06-22T03:40:51;101890.97;;;15.06;100.00
37202;BME280;37799;52.390;6.136;2023-06-22T03:43:16;101902.22;;;15.08;100.00
37202;BME280;37799;52.390;6.136;2023-06-22T03:45:41;101896.16;;;15.08;100.00
37202;BME280;37799;52.390;6.136;2023-06-22T03:48:07;101895.13;;;15.13;100.00
37202;BME280;37799;52.390;6.136;2023-06-22T03:50:32;101888.88;;;15.19;100.00
37202;BME280;37799;52.390;6.136;2023-06-22T03:52:58;101886.91;;;15.27;100.00
37202;BME280;37799;52.390;6.136;2023-06-22T03:55:23;101881.69;;;15.27;100.00
37202;BME280;37799;52.390;6.136;2023-06-22T03:57:48;101887.78;;;15.27;100.00
37202;BME280;37799;52.390;6.136;2023-06-22T04:00:14;101885.97;;;15.29;100.00
37202;BME280;37799;52.390;6.136;2023-06-22T04:02:41;101879.13;;;15.25;100.00
37202;BME280;37799;52.390;6.136;2023-06-22T04:05:08;101879.94;;;15.27;100.00
37202;BME280;37799;52.390;6.136;2023-06-22T04:07:33;101892.13;;;15.27;100.00
37202;BME280;37799;52.390;6.136;2023-06-22T04:09:59;101888.72;;;15.23;100.00
37202;BME280;37799;52.390;6.136;2023-06-22T04:12:24;101891.28;;;15.26;100.00
37202;BME280;37799;52.390;6.136;2023-06-22T04:14:50;101884.34;;;15.25;100.00
37202;BME280;37799;52.390;6.136;2023-06-22T04:17:15;101890.34;;;15.29;100.00
37202;BME280;37799;52.390;6.136;2023-06-22T04:19:40;101883.44;;;15.26;100.00
37202;BME280;37799;52.390;6.136;2023-06-22T04:22:06;101887.69;;;15.30;100.00
37202;BME280;37799;52.390;6.136;2023-06-22T04:24:35;101886.69;;;15.34;100.00
37202;BME280;37799;52.390;6.136;2023-06-22T04:27:00;101893.59;;;15.35;100.00
37202;BME280;37799;52.390;6.136;2023-06-22T04:29:28;101886.59;;;15.38;100.00
37202;BME280;37799;52.390;6.136;2023-06-22T04:31:55;101890.84;;;15.42;100.00
37202;BME280;37799;52.390;6.136;2023-06-22T04:34:23;101887.13;;;15.49;100.00
37202;BME280;37799;52.390;6.136;2023-06-22T04:36:51;101879.00;;;15.59;100.00
37202;BME280;37799;52.390;6.136;2023-06-22T04:39:17;101884.06;;;15.66;100.00
37202;BME280;37799;52.390;6.136;2023-06-22T04:41:43;101875.16;;;15.71;100.00
37202;BME280;37799;52.390;6.136;2023-06-22T04:44:13;101867.16;;;15.77;100.00
37202;BME280;37799;52.390;6.136;2023-06-22T04:46:39;101874.63;;;15.89;100.00
37202;BME280;37799;52.390;6.136;2023-06-22T04:49:08;101871.91;;;15.92;100.00
37202;BME280;37799;52.390;6.136;2023-06-22T04:51:41;101866.47;;;15.99;100.00
37202;BME280;37799;52.390;6.136;2023-06-22T04:54:07;101863.78;;;16.02;100.00
37202;BME280;37799;52.390;6.136;2023-06-22T04:56:33;101869.50;;;16.13;100.00
37202;BME280;37799;52.390;6.136;2023-06-22T04:58:59;101861.31;;;16.23;100.00
37202;BME280;37799;52.390;6.136;2023-06-22T05:01:25;101860.84;;;16.37;100.00
37202;BME280;37799;52.390;6.136;2023-06-22T05:03:51;101862.03;;;16.53;100.00
37202;BME280;37799;52.390;6.136;2023-06-22T05:06:21;101868.81;;;16.59;100.00
37202;BME280;37799;52.390;6.136;2023-06-22T05:08:46;101853.59;;;16.72;100.00
37202;BME280;37799;52.390;6.136;2023-06-22T05:11:12;101859.06;;;16.89;100.00
37202;BME280;37799;52.390;6.136;2023-06-22T05:13:37;101870.00;;;17.00;100.00
37202;BME280;37799;52.390;6.136;2023-06-22T05:16:03;101873.06;;;17.12;100.00
37202;BME280;37799;52.390;6.136;2023-06-22T05:18:29;101868.97;;;17.28;100.00
37202;BME280;37799;52.390;6.136;2023-06-22T05:20:55;101879.69;;;17.45;100.00
37202;BME280;37799;52.390;6.136;2023-06-22T05:23:20;101872.94;;;17.61;100.00
37202;BME280;37799;52.390;6.136;2023-06-22T05:25:45;101873.16;;;17.79;100.00
37202;BME280;37799;52.390;6.136;2023-06-22T05:28:11;101873.47;;;17.93;100.00
37202;BME280;37799;52.390;6.136;2023-06-22T05:30:37;101873.50;;;18.13;100.00
37202;BME280;37799;52.390;6.136;2023-06-22T05:33:02;101878.13;;;18.28;100.00
37202;BME280;37799;52.390;6.136;2023-06-22T05:35:28;101878.59;;;18.58;100.00
37202;BME280;37799;52.390;6.136;2023-06-22T05:37:55;101879.81;;;19.11;100.00
37202;BME280;37799;52.390;6.136;2023-06-22T05:40:21;101882.28;;;19.53;100.00
37202;BME280;37799;52.390;6.136;2023-06-22T05:42:47;101878.75;;;19.90;100.00
37202;BME280;37799;52.390;6.136;2023-06-22T05:45:12;101876.34;;;20.39;100.00
37202;BME280;37799;52.390;6.136;2023-06-22T05:47:38;101881.91;;;20.68;100.00
37202;BME280;37799;52.390;6.136;2023-06-22T05:50:05;101881.59;;;21.07;100.00
37202;BME280;37799;52.390;6.136;2023-06-22T05:52:32;101886.22;;;21.52;100.00
37202;BME280;37799;52.390;6.136;2023-06-22T05:54:58;101887.09;;;21.98;100.00
37202;BME280;37799;52.390;6.136;2023-06-22T05:57:23;101887.22;;;22.43;100.00
37202;BME280;37799;52.390;6.136;2023-06-22T05:59:48;101897.31;;;22.94;100.00
37202;BME280;37799;52.390;6.136;2023-06-22T06:02:14;101904.09;;;23.27;100.00
37202;BME280;37799;52.390;6.136;2023-06-22T06:04:39;101906.13;;;23.50;100.00
37202;BME280;37799;52.390;6.136;2023-06-22T06:07:05;101912.03;;;23.82;100.00
37202;BME280;37799;52.390;6.136;2023-06-22T06:09:30;101904.72;;;24.00;100.00
37202;BME280;37799;52.390;6.136;2023-06-22T06:11:56;101906.63;;;23.98;100.00
37202;BME280;37799;52.390;6.136;2023-06-22T06:14:21;101900.31;;;24.13;100.00
37202;BME280;37799;52.390;6.136;2023-06-22T06:16:48;101906.31;;;23.76;100.00
37202;BME280;37799;52.390;6.136;2023-06-22T06:19:14;101916.69;;;23.79;100.00
37202;BME280;37799;52.390;6.136;2023-06-22T06:21:39;101909.50;;;23.81;100.00
37202;BME280;37799;52.390;6.136;2023-06-22T06:24:05;101906.50;;;23.73;100.00
37202;BME280;37799;52.390;6.136;2023-06-22T06:26:30;101897.06;;;23.54;100.00
37202;BME280;37799;52.390;6.136;2023-06-22T06:28:59;101896.53;;;23.35;100.00
37202;BME280;37799;52.390;6.136;2023-06-22T06:31:25;101899.19;;;23.21;100.00
37202;BME280;37799;52.390;6.136;2023-06-22T06:33:52;101893.44;;;23.14;100.00
37202;BME280;37799;52.390;6.136;2023-06-22T06:36:19;101900.84;;;23.50;100.00
37202;BME280;37799;52.390;6.136;2023-06-22T06:38:44;101888.91;;;24.26;100.00
37202;BME280;37799;52.390;6.136;2023-06-22T06:41:15;101897.25;;;24.59;100.00
37202;BME280;37799;52.390;6.136;2023-06-22T06:43:40;101901.06;;;24.81;100.00
37202;BME280;37799;52.390;6.136;2023-06-22T06:46:08;101901.22;;;25.54;100.00
37202;BME280;37799;52.390;6.136;2023-06-22T06:48:35;101906.91;;;26.21;100.00
37202;BME280;37799;52.390;6.136;2023-06-22T06:51:00;101903.69;;;26.86;100.00
37202;BME280;37799;52.390;6.136;2023-06-22T06:53:25;101902.28;;;27.04;100.00
37202;BME280;37799;52.390;6.136;2023-06-22T06:55:51;101906.75;;;27.49;100.00
37202;BME280;37799;52.390;6.136;2023-06-22T06:58:16;101898.59;;;26.61;100.00
37202;BME280;37799;52.390;6.136;2023-06-22T07:00:42;101888.19;;;26.23;100.00
37202;BME280;37799;52.390;6.136;2023-06-22T07:03:08;101893.03;;;26.29;100.00
37202;BME280;37799;52.390;6.136;2023-06-22T07:05:35;101899.34;;;26.04;100.00
37202;BME280;37799;52.390;6.136;2023-06-22T07:08:00;101892.63;;;26.11;100.00
37202;BME280;37799;52.390;6.136;2023-06-22T07:10:26;101891.75;;;26.34;100.00
37202;BME280;37799;52.390;6.136;2023-06-22T07:12:52;101886.53;;;26.57;100.00
37202;BME280;37799;52.390;6.136;2023-06-22T07:15:17;101886.28;;;26.82;100.00
37202;BME280;37799;52.390;6.136;2023-06-22T07:17:42;101877.44;;;26.48;100.00
37202;BME280;37799;52.390;6.136;2023-06-22T07:20:09;101882.19;;;27.00;100.00
37202;BME280;37799;52.390;6.136;2023-06-22T07:22:36;101879.03;;;27.51;100.00
37202;BME280;37799;52.390;6.136;2023-06-22T07:25:02;101876.41;;;27.40;100.00
37202;BME280;37799;52.390;6.136;2023-06-22T07:27:34;101875.28;;;27.65;100.00
37202;BME280;37799;52.390;6.136;2023-06-22T07:30:02;101864.22;;;27.81;100.00
37202;BME280;37799;52.390;6.136;2023-06-22T07:32:27;101863.19;;;28.46;100.00
37202;BME280;37799;52.390;6.136;2023-06-22T07:34:54;101865.72;;;28.68;100.00
37202;BME280;37799;52.390;6.136;2023-06-22T07:37:19;101861.84;;;28.31;100.00
37202;BME280;37799;52.390;6.136;2023-06-22T07:39:44;101867.50;;;28.89;100.00
37202;BME280;37799;52.390;6.136;2023-06-22T07:42:10;101864.13;;;29.17;100.00
37202;BME280;37799;52.390;6.136;2023-06-22T07:44:35;101869.78;;;29.33;99.49
37202;BME280;37799;52.390;6.136;2023-06-22T07:47:00;101862.09;;;29.50;95.67
37202;BME280;37799;52.390;6.136;2023-06-22T07:49:27;101870.53;;;29.55;97.17
37202;BME280;37799;52.390;6.136;2023-06-22T07:51:53;101873.78;;;29.78;95.36
37202;BME280;37799;52.390;6.136;2023-06-22T07:54:18;101865.75;;;29.49;95.60
37202;BME280;37799;52.390;6.136;2023-06-22T07:56:43;101874.81;;;29.36;95.27
37202;BME280;37799;52.390;6.136;2023-06-22T07:59:09;101860.72;;;28.85;99.40
37202;BME280;37799;52.390;6.136;2023-06-22T08:01:34;101858.78;;;29.17;100.00
37202;BME280;37799;52.390;6.136;2023-06-22T08:03:59;101851.59;;;29.08;94.33
37202;BME280;37799;52.390;6.136;2023-06-22T08:06:25;101853.84;;;29.13;94.04
37202;BME280;37799;52.390;6.136;2023-06-22T08:08:50;101854.88;;;28.91;92.74
37202;BME280;37799;52.390;6.136;2023-06-22T08:11:18;101851.88;;;28.84;92.87
37202;BME280;37799;52.390;6.136;2023-06-22T08:13:43;101854.97;;;28.79;95.66
37202;BME280;37799;52.390;6.136;2023-06-22T08:16:08;101855.88;;;29.40;93.04
37202;BME280;37799;52.390;6.136;2023-06-22T08:18:34;101849.34;;;29.73;92.43
37202;BME280;37799;52.390;6.136;2023-06-22T08:20:59;101848.34;;;30.03;87.95
37202;BME280;37799;52.390;6.136;2023-06-22T08:23:24;101845.84;;;30.11;85.57
37202;BME280;37799;52.390;6.136;2023-06-22T08:25:50;101845.41;;;30.06;84.96
37202;BME280;37799;52.390;6.136;2023-06-22T08:28:16;101840.22;;;29.75;87.58
37202;BME280;37799;52.390;6.136;2023-06-22T08:30:41;101840.44;;;29.43;89.57
37202;BME280;37799;52.390;6.136;2023-06-22T08:33:07;101835.25;;;28.92;91.39
37202;BME280;37799;52.390;6.136;2023-06-22T08:35:32;101835.03;;;28.84;91.21
37202;BME280;37799;52.390;6.136;2023-06-22T08:37:57;101827.31;;;29.11;95.13
37202;BME280;37799;52.390;6.136;2023-06-22T08:40:24;101824.56;;;29.42;86.50
37202;BME280;37799;52.390;6.136;2023-06-22T08:42:49;101819.22;;;29.42;89.83
37202;BME280;37799;52.390;6.136;2023-06-22T08:45:16;101814.03;;;29.30;88.74
37202;BME280;37799;52.390;6.136;2023-06-22T08:47:41;101804.78;;;29.54;88.68
37202;BME280;37799;52.390;6.136;2023-06-22T08:50:08;101802.56;;;29.78;87.52
37202;BME280;37799;52.390;6.136;2023-06-22T08:52:34;101790.31;;;29.66;85.52
37202;BME280;37799;52.390;6.136;2023-06-22T08:55:00;101788.94;;;29.72;87.20
37202;BME280;37799;52.390;6.136;2023-06-22T08:57:26;101781.16;;;30.07;86.13
37202;BME280;37799;52.390;6.136;2023-06-22T08:59:52;101793.44;;;30.47;82.21
37202;BME280;37799;52.390;6.136;2023-06-22T09:02:18;101779.38;;;30.82;80.57
37202;BME280;37799;52.390;6.136;2023-06-22T09:04:45;101789.28;;;31.27;78.11
37202;BME280;37799;52.390;6.136;2023-06-22T09:07:10;101772.28;;;31.72;78.76
37202;BME280;37799;52.390;6.136;2023-06-22T09:09:37;101783.84;;;32.16;77.57
37202;BME280;37799;52.390;6.136;2023-06-22T09:12:03;101776.91;;;32.57;71.84
37202;BME280;37799;52.390;6.136;2023-06-22T09:14:28;101774.38;;;32.90;67.75
37202;BME280;37799;52.390;6.136;2023-06-22T09:16:53;101776.72;;;32.93;67.81
37202;BME280;37799;52.390;6.136;2023-06-22T09:19:19;101776.09;;;32.56;66.86
37202;BME280;37799;52.390;6.136;2023-06-22T09:21:44;101774.66;;;31.92;66.91
37202;BME280;37799;52.390;6.136;2023-06-22T09:24:09;101775.44;;;31.49;68.89
37202;BME280;37799;52.390;6.136;2023-06-22T09:26:35;101773.63;;;31.04;69.05
37202;BME280;37799;52.390;6.136;2023-06-22T09:29:00;101778.88;;;31.24;65.40
37202;BME280;37799;52.390;6.136;2023-06-22T09:31:25;101784.13;;;31.16;68.26
37202;BME280;37799;52.390;6.136;2023-06-22T09:33:52;101772.84;;;31.57;65.77
37202;BME280;37799;52.390;6.136;2023-06-22T09:36:18;101779.31;;;32.16;61.71
37202;BME280;37799;52.390;6.136;2023-06-22T09:38:43;101779.81;;;32.30;61.12
37202;BME280;37799;52.390;6.136;2023-06-22T09:41:09;101773.66;;;31.93;58.73
37202;BME280;37799;52.390;6.136;2023-06-22T09:43:34;101776.38;;;30.95;61.63
37202;BME280;37799;52.390;6.136;2023-06-22T09:46:02;101771.47;;;30.16;66.98
37202;BME280;37799;52.390;6.136;2023-06-22T09:48:29;101767.69;;;29.89;65.41
37202;BME280;37799;52.390;6.136;2023-06-22T09:50:57;101769.66;;;30.07;69.00
37202;BME280;37799;52.390;6.136;2023-06-22T09:53:22;101772.78;;;29.73;67.32
37202;BME280;37799;52.390;6.136;2023-06-22T09:55:47;101758.69;;;29.81;68.23
37202;BME280;37799;52.390;6.136;2023-06-22T09:58:13;101762.19;;;29.43;71.88
37202;BME280;37799;52.390;6.136;2023-06-22T10:00:38;101766.00;;;29.30;77.43
37202;BME280;37799;52.390;6.136;2023-06-22T10:03:04;101765.84;;;29.22;71.52
37202;BME280;37799;52.390;6.136;2023-06-22T10:05:29;101760.34;;;29.14;72.98
37202;BME280;37799;52.390;6.136;2023-06-22T10:07:54;101759.53;;;29.43;72.76
37202;BME280;37799;52.390;6.136;2023-06-22T10:10:20;101755.63;;;29.66;70.33
37202;BME280;37799;52.390;6.136;2023-06-22T10:12:47;101752.22;;;30.03;70.51
37202;BME280;37799;52.390;6.136;2023-06-22T10:15:13;101762.00;;;30.31;68.13
37202;BME280;37799;52.390;6.136;2023-06-22T10:17:38;101757.56;;;30.49;66.71
37202;BME280;37799;52.390;6.136;2023-06-22T10:20:06;101750.94;;;30.53;66.49
37202;BME280;37799;52.390;6.136;2023-06-22T10:22:40;101755.97;;;30.57;66.44
37202;BME280;37799;52.390;6.136;2023-06-22T10:25:06;101752.84;;;30.71;66.76
37202;BME280;37799;52.390;6.136;2023-06-22T10:27:32;101751.06;;;30.89;63.33
37202;BME280;37799;52.390;6.136;2023-06-22T10:29:58;101759.31;;;30.96;60.22
37202;BME280;37799;52.390;6.136;2023-06-22T10:32:23;101762.66;;;30.80;62.59
37202;BME280;37799;52.390;6.136;2023-06-22T10:34:49;101751.03;;;30.34;59.68
37202;BME280;37799;52.390;6.136;2023-06-22T10:37:14;101745.63;;;29.87;60.55
37202;BME280;37799;52.390;6.136;2023-06-22T10:39:39;101744.94;;;29.27;65.13
37202;BME280;37799;52.390;6.136;2023-06-22T10:42:05;101753.19;;;29.05;65.96
37202;BME280;37799;52.390;6.136;2023-06-22T10:44:30;101747.47;;;28.69;66.85
37202;BME280;37799;52.390;6.136;2023-06-22T10:46:56;101751.34;;;28.56;71.75
37202;BME280;37799;52.390;6.136;2023-06-22T10:49:22;101756.63;;;28.46;71.09
37202;BME280;37799;52.390;6.136;2023-06-22T10:51:47;101756.97;;;28.32;74.09
37202;BME280;37799;52.390;6.136;2023-06-22T10:54:12;101753.66;;;28.18;73.71
37202;BME280;37799;52.390;6.136;2023-06-22T10:56:40;101753.53;;;27.99;73.97
37202;BME280;37799;52.390;6.136;2023-06-22T10:59:05;101748.47;;;27.96;74.44
37202;BME280;37799;52.390;6.136;2023-06-22T11:01:30;101747.94;;;27.81;74.30
37202;BME280;37799;52.390;6.136;2023-06-22T11:03:58;101748.97;;;27.69;74.69
37202;BME280;37799;52.390;6.136;2023-06-22T11:06:24;101749.47;;;27.63;77.00
37202;BME280;37799;52.390;6.136;2023-06-22T11:08:49;101742.13;;;27.55;78.80
37202;BME280;37799;52.390;6.136;2023-06-22T11:11:15;101743.31;;;27.62;78.85
37202;BME280;37799;52.390;6.136;2023-06-22T11:13:42;101747.72;;;27.52;80.86
37202;BME280;37799;52.390;6.136;2023-06-22T11:16:10;101739.06;;;27.71;84.95
37202;BME280;37799;52.390;6.136;2023-06-22T11:18:35;101743.53;;;27.91;84.68
37202;BME280;37799;52.390;6.136;2023-06-22T11:21:01;101736.25;;;28.14;82.37
37202;BME280;37799;52.390;6.136;2023-06-22T11:23:26;101737.78;;;28.38;86.13
37202;BME280;37799;52.390;6.136;2023-06-22T11:25:53;101733.31;;;28.78;81.39
37202;BME280;37799;52.390;6.136;2023-06-22T11:28:18;101739.50;;;28.79;72.43
37202;BME280;37799;52.390;6.136;2023-06-22T11:30:43;101733.22;;;28.90;71.47
37202;BME280;37799;52.390;6.136;2023-06-22T11:33:09;101728.69;;;28.81;76.17
37202;BME280;37799;52.390;6.136;2023-06-22T11:35:34;101725.38;;;28.98;78.91
37202;BME280;37799;52.390;6.136;2023-06-22T11:37:59;101724.41;;;28.99;76.91
37202;BME280;37799;52.390;6.136;2023-06-22T11:40:25;101711.78;;;29.01;79.03
37202;BME280;37799;52.390;6.136;2023-06-22T11:42:50;101706.47;;;29.30;76.34
37202;BME280;37799;52.390;6.136;2023-06-22T11:45:15;101704.81;;;29.58;76.48
37202;BME280;37799;52.390;6.136;2023-06-22T11:47:42;101710.31;;;30.03;73.75
37202;BME280;37799;52.390;6.136;2023-06-22T11:50:17;101710.16;;;30.24;69.62
37202;BME280;37799;52.390;6.136;2023-06-22T11:52:43;101704.69;;;30.43;69.43
37202;BME280;37799;52.390;6.136;2023-06-22T11:55:08;101699.53;;;30.60;68.63
37202;BME280;37799;52.390;6.136;2023-06-22T11:57:36;101696.69;;;30.43;65.48
37202;BME280;37799;52.390;6.136;2023-06-22T12:00:02;101696.28;;;30.11;64.56
37202;BME280;37799;52.390;6.136;2023-06-22T12:02:31;101686.72;;;29.99;65.64
37202;BME280;37799;52.390;6.136;2023-06-22T12:04:57;101684.94;;;29.80;65.79
37202;BME280;37799;52.390;6.136;2023-06-22T12:07:23;101676.97;;;29.70;68.40
37202;BME280;37799;52.390;6.136;2023-06-22T12:09:48;101677.75;;;29.80;68.30
37202;BME280;37799;52.390;6.136;2023-06-22T12:12:15;101671.50;;;29.62;69.37
37202;BME280;37799;52.390;6.136;2023-06-22T12:14:40;101668.00;;;29.52;67.64
37202;BME280;37799;52.390;6.136;2023-06-22T12:17:05;101659.56;;;29.37;71.45
37202;BME280;37799;52.390;6.136;2023-06-22T12:19:31;101666.03;;;29.44;73.87
37202;BME280;37799;52.390;6.136;2023-06-22T12:21:56;101668.53;;;29.17;70.54
37202;BME280;37799;52.390;6.136;2023-06-22T12:24:21;101672.03;;;28.88;70.51
37202;BME280;37799;52.390;6.136;2023-06-22T12:26:48;101668.78;;;28.65;74.50
37202;BME280;37799;52.390;6.136;2023-06-22T12:29:13;101663.13;;;28.59;74.92
37202;BME280;37799;52.390;6.136;2023-06-22T12:31:39;101660.09;;;28.33;74.21
37202;BME280;37799;52.390;6.136;2023-06-22T12:34:04;101645.88;;;28.23;74.95
37202;BME280;37799;52.390;6.136;2023-06-22T12:36:30;101651.06;;;28.14;73.72
37202;BME280;37799;52.390;6.136;2023-06-22T12:38:55;101656.31;;;28.05;77.14
37202;BME280;37799;52.390;6.136;2023-06-22T12:41:20;101660.34;;;27.99;71.96
37202;BME280;37799;52.390;6.136;2023-06-22T12:43:46;101656.81;;;27.68;77.43